Kamysin, Russia
Current Conditions -  °F | °C
As of 10:00 PM on Friday 28 Nov 2014 (Local Time) from URWW Reporting Station
Clear Clear  
Wind Chill:   Ceiling: Unl
Heat Index: 18°   Visibility: 6mi
Dew Point: 10°   Wind: 16mph
Humidity: 73%   Direction: 80°E
Pressure: 30.53"   Gusts: 22mph
Location:  50.07°N, 45.37°E
Report Text: URWW 281900Z 08007G10MPS CAVOK M08/M12 Q1034 NOSIG RMK11CLRD70
Loading
Personal Weather Stations






























Interactive Weather Map New forecast layout! Learn more

10-Day Weather Forecast

Advertisements
Track Severe Weather on mobile